sensor_id;sensor_type;location;lat;lon;timestamp;P1;durP1;ratioP1;P2;durP2;ratioP2
37365;SDS011;23239;51.504;7.456;2023-08-31T00:00:00;9.5;;;3.9;;
37365;SDS011;23239;51.504;7.456;2023-08-31T00:01:00;9.5;;;3.9;;
37365;SDS011;23239;51.504;7.456;2023-08-31T00:02:00;7.5;;;4.0;;
37365;SDS011;23239;51.504;7.456;2023-08-31T00:03:00;7.5;;;4.0;;
37365;SDS011;23239;51.504;7.456;2023-08-31T00:04:00;7.5;;;4.0;;
37365;SDS011;23239;51.504;7.456;2023-08-31T00:05:00;7.5;;;4.0;;
37365;SDS011;23239;51.504;7.456;2023-08-31T00:06:01;7.5;;;4.0;;
37365;SDS011;23239;51.504;7.456;2023-08-31T00:07:00;6.5;;;3.5;;
37365;SDS011;23239;51.504;7.456;2023-08-31T00:08:00;6.5;;;3.5;;
37365;SDS011;23239;51.504;7.456;2023-08-31T00:09:00;6.5;;;3.5;;
37365;SDS011;23239;51.504;7.456;2023-08-31T00:10:00;6.5;;;3.5;;
37365;SDS011;23239;51.504;7.456;2023-08-31T00:11:00;6.5;;;3.5;;
37365;SDS011;23239;51.504;7.456;2023-08-31T00:12:00;8.5;;;3.6;;
37365;SDS011;23239;51.504;7.456;2023-08-31T00:13:00;8.5;;;3.6;;
37365;SDS011;23239;51.504;7.456;2023-08-31T00:14:00;8.5;;;3.6;;
37365;SDS011;23239;51.504;7.456;2023-08-31T00:15:00;8.5;;;3.6;;
37365;SDS011;23239;51.504;7.456;2023-08-31T00:16:00;8.5;;;3.6;;
37365;SDS011;23239;51.504;7.456;2023-08-31T00:17:00;8.4;;;3.3;;
37365;SDS011;23239;51.504;7.456;2023-08-31T00:18:00;8.4;;;3.3;;
37365;SDS011;23239;51.504;7.456;2023-08-31T00:19:00;8.4;;;3.3;;
37365;SDS011;23239;51.504;7.456;2023-08-31T00:20:00;8.4;;;3.3;;
37365;SDS011;23239;51.504;7.456;2023-08-31T00:21:00;8.4;;;3.3;;
37365;SDS011;23239;51.504;7.456;2023-08-31T00:22:00;7.1;;;3.6;;
37365;SDS011;23239;51.504;7.456;2023-08-31T00:23:00;7.1;;;3.6;;
37365;SDS011;23239;51.504;7.456;2023-08-31T00:24:00;7.1;;;3.6;;
37365;SDS011;23239;51.504;7.456;2023-08-31T00:25:00;7.1;;;3.6;;
37365;SDS011;23239;51.504;7.456;2023-08-31T00:26:00;7.1;;;3.6;;
37365;SDS011;23239;51.504;7.456;2023-08-31T00:27:00;6.6;;;3.2;;
37365;SDS011;23239;51.504;7.456;2023-08-31T00:28:01;6.6;;;3.2;;
37365;SDS011;23239;51.504;7.456;2023-08-31T00:29:00;6.6;;;3.2;;
37365;SDS011;23239;51.504;7.456;2023-08-31T00:30:00;6.6;;;3.2;;
37365;SDS011;23239;51.504;7.456;2023-08-31T00:31:00;6.6;;;3.2;;
37365;SDS011;23239;51.504;7.456;2023-08-31T00:32:00;9.8;;;3.5;;
37365;SDS011;23239;51.504;7.456;2023-08-31T00:33:00;9.8;;;3.5;;
37365;SDS011;23239;51.504;7.456;2023-08-31T00:34:00;9.8;;;3.5;;
37365;SDS011;23239;51.504;7.456;2023-08-31T00:35:00;9.8;;;3.5;;
37365;SDS011;23239;51.504;7.456;2023-08-31T00:36:00;9.8;;;3.5;;
37365;SDS011;23239;51.504;7.456;2023-08-31T00:37:00;6.8;;;3.2;;
37365;SDS011;23239;51.504;7.456;2023-08-31T00:38:00;6.8;;;3.2;;
37365;SDS011;23239;51.504;7.456;2023-08-31T00:39:02;6.8;;;3.2;;
37365;SDS011;23239;51.504;7.456;2023-08-31T00:40:00;6.8;;;3.2;;
37365;SDS011;23239;51.504;7.456;2023-08-31T00:41:00;6.8;;;3.2;;
37365;SDS011;23239;51.504;7.456;2023-08-31T00:42:00;8.3;;;3.1;;
37365;SDS011;23239;51.504;7.456;2023-08-31T00:43:00;8.3;;;3.1;;
37365;SDS011;23239;51.504;7.456;2023-08-31T00:44:00;8.3;;;3.1;;
37365;SDS011;23239;51.504;7.456;2023-08-31T00:45:00;8.3;;;3.1;;
37365;SDS011;23239;51.504;7.456;2023-08-31T00:46:00;8.3;;;3.1;;
37365;SDS011;23239;51.504;7.456;2023-08-31T00:47:00;7.1;;;3.0;;
37365;SDS011;23239;51.504;7.456;2023-08-31T00:48:00;7.1;;;3.0;;
37365;SDS011;23239;51.504;7.456;2023-08-31T00:49:00;7.1;;;3.0;;
37365;SDS011;23239;51.504;7.456;2023-08-31T00:50:00;7.1;;;3.0;;
37365;SDS011;23239;51.504;7.456;2023-08-31T00:51:00;7.1;;;3.0;;
37365;SDS011;23239;51.504;7.456;2023-08-31T00:52:00;7.7;;;2.9;;
37365;SDS011;23239;51.504;7.456;2023-08-31T00:53:00;7.7;;;2.9;;
37365;SDS011;23239;51.504;7.456;2023-08-31T00:54:01;7.7;;;2.9;;
37365;SDS011;23239;51.504;7.456;2023-08-31T00:55:00;7.7;;;2.9;;
37365;SDS011;23239;51.504;7.456;2023-08-31T00:56:00;7.7;;;2.9;;
37365;SDS011;23239;51.504;7.456;2023-08-31T00:57:00;6.6;;;3.0;;
37365;SDS011;23239;51.504;7.456;2023-08-31T00:58:00;6.6;;;3.0;;
37365;SDS011;23239;51.504;7.456;2023-08-31T00:59:00;6.6;;;3.0;;
37365;SDS011;23239;51.504;7.456;2023-08-31T01:00:00;6.6;;;3.0;;
37365;SDS011;23239;51.504;7.456;2023-08-31T01:01:01;6.6;;;3.0;;
37365;SDS011;23239;51.504;7.456;2023-08-31T01:02:02;6.8;;;2.7;;
37365;SDS011;23239;51.504;7.456;2023-08-31T01:03:01;6.8;;;2.7;;
37365;SDS011;23239;51.504;7.456;2023-08-31T01:04:03;6.8;;;2.7;;
37365;SDS011;23239;51.504;7.456;2023-08-31T01:05:03;6.8;;;2.7;;
37365;SDS011;23239;51.504;7.456;2023-08-31T01:06:02;6.8;;;2.7;;
37365;SDS011;23239;51.504;7.456;2023-08-31T01:07:01;6.0;;;2.3;;
37365;SDS011;23239;51.504;7.456;2023-08-31T01:08:02;6.0;;;2.3;;
37365;SDS011;23239;51.504;7.456;2023-08-31T01:09:02;6.0;;;2.3;;
37365;SDS011;23239;51.504;7.456;2023-08-31T01:10:02;6.0;;;2.3;;
37365;SDS011;23239;51.504;7.456;2023-08-31T01:11:03;6.0;;;2.3;;
37365;SDS011;23239;51.504;7.456;2023-08-31T01:12:02;5.7;;;2.8;;
37365;SDS011;23239;51.504;7.456;2023-08-31T01:13:00;5.7;;;2.8;;
37365;SDS011;23239;51.504;7.456;2023-08-31T01:14:00;5.7;;;2.8;;
37365;SDS011;23239;51.504;7.456;2023-08-31T01:15:02;5.7;;;2.8;;
37365;SDS011;23239;51.504;7.456;2023-08-31T01:16:02;5.7;;;2.8;;
37365;SDS011;23239;51.504;7.456;2023-08-31T01:17:00;10.6;;;4.4;;
37365;SDS011;23239;51.504;7.456;2023-08-31T01:18:00;10.6;;;4.4;;
37365;SDS011;23239;51.504;7.456;2023-08-31T01:19:00;10.6;;;4.4;;
37365;SDS011;23239;51.504;7.456;2023-08-31T01:20:00;10.6;;;4.4;;
37365;SDS011;23239;51.504;7.456;2023-08-31T01:21:01;10.6;;;4.4;;
37365;SDS011;23239;51.504;7.456;2023-08-31T01:22:01;8.3;;;3.2;;
37365;SDS011;23239;51.504;7.456;2023-08-31T01:23:02;8.3;;;3.2;;
37365;SDS011;23239;51.504;7.456;2023-08-31T01:24:00;8.3;;;3.2;;
37365;SDS011;23239;51.504;7.456;2023-08-31T01:25:00;8.3;;;3.2;;
37365;SDS011;23239;51.504;7.456;2023-08-31T01:26:00;8.3;;;3.2;;
37365;SDS011;23239;51.504;7.456;2023-08-31T01:27:00;8.1;;;3.2;;
37365;SDS011;23239;51.504;7.456;2023-08-31T01:28:00;8.1;;;3.2;;
37365;SDS011;23239;51.504;7.456;2023-08-31T01:29:00;8.1;;;3.2;;
37365;SDS011;23239;51.504;7.456;2023-08-31T01:30:00;8.1;;;3.2;;
37365;SDS011;23239;51.504;7.456;2023-08-31T01:31:03;8.1;;;3.2;;
37365;SDS011;23239;51.504;7.456;2023-08-31T01:32:00;8.8;;;3.2;;
37365;SDS011;23239;51.504;7.456;2023-08-31T01:33:00;8.8;;;3.2;;
37365;SDS011;23239;51.504;7.456;2023-08-31T01:34:00;8.8;;;3.2;;
37365;SDS011;23239;51.504;7.456;2023-08-31T01:35:00;8.8;;;3.2;;
37365;SDS011;23239;51.504;7.456;2023-08-31T01:36:00;8.8;;;3.2;;
37365;SDS011;23239;51.504;7.456;2023-08-31T01:37:00;6.4;;;2.9;;
37365;SDS011;23239;51.504;7.456;2023-08-31T01:38:00;6.4;;;2.9;;
37365;SDS011;23239;51.504;7.456;2023-08-31T01:39:03;6.4;;;2.9;;
37365;SDS011;23239;51.504;7.456;2023-08-31T01:40:02;6.4;;;2.9;;
37365;SDS011;23239;51.504;7.456;2023-08-31T01:41:00;6.4;;;2.9;;
37365;SDS011;23239;51.504;7.456;2023-08-31T01:42:01;8.4;;;3.0;;
37365;SDS011;23239;51.504;7.456;2023-08-31T01:43:00;8.4;;;3.0;;
37365;SDS011;23239;51.504;7.456;2023-08-31T01:44:00;8.4;;;3.0;;
37365;SDS011;23239;51.504;7.456;2023-08-31T01:45:00;8.4;;;3.0;;
37365;SDS011;23239;51.504;7.456;2023-08-31T01:46:00;8.4;;;3.0;;
37365;SDS011;23239;51.504;7.456;2023-08-31T01:47:02;10.3;;;3.4;;
37365;SDS011;23239;51.504;7.456;2023-08-31T01:48:00;10.3;;;3.4;;
37365;SDS011;23239;51.504;7.456;2023-08-31T01:49:00;10.3;;;3.4;;
37365;SDS011;23239;51.504;7.456;2023-08-31T01:50:00;10.3;;;3.4;;
37365;SDS011;23239;51.504;7.456;2023-08-31T01:51:00;10.3;;;3.4;;
37365;SDS011;23239;51.504;7.456;2023-08-31T01:52:00;6.2;;;3.2;;
37365;SDS011;23239;51.504;7.456;2023-08-31T01:53:00;6.2;;;3.2;;
37365;SDS011;23239;51.504;7.456;2023-08-31T01:54:01;6.2;;;3.2;;
37365;SDS011;23239;51.504;7.456;2023-08-31T01:55:00;6.2;;;3.2;;
37365;SDS011;23239;51.504;7.456;2023-08-31T01:56:00;6.2;;;3.2;;
37365;SDS011;23239;51.504;7.456;2023-08-31T01:57:00;6.5;;;3.0;;
37365;SDS011;23239;51.504;7.456;2023-08-31T01:58:00;6.5;;;3.0;;
37365;SDS011;23239;51.504;7.456;2023-08-31T01:59:00;6.5;;;3.0;;
37365;SDS011;23239;51.504;7.456;2023-08-31T02:00:01;6.5;;;3.0;;
37365;SDS011;23239;51.504;7.456;2023-08-31T02:01:00;6.5;;;3.0;;
37365;SDS011;23239;51.504;7.456;2023-08-31T02:02:00;7.6;;;3.5;;
37365;SDS011;23239;51.504;7.456;2023-08-31T02:03:00;7.6;;;3.5;;
37365;SDS011;23239;51.504;7.456;2023-08-31T02:04:00;7.6;;;3.5;;
37365;SDS011;23239;51.504;7.456;2023-08-31T02:05:00;7.6;;;3.5;;
37365;SDS011;23239;51.504;7.456;2023-08-31T02:06:00;7.6;;;3.5;;
37365;SDS011;23239;51.504;7.456;2023-08-31T02:07:00;7.7;;;3.2;;
37365;SDS011;23239;51.504;7.456;2023-08-31T02:08:00;7.7;;;3.2;;
37365;SDS011;23239;51.504;7.456;2023-08-31T02:09:00;7.7;;;3.2;;
37365;SDS011;23239;51.504;7.456;2023-08-31T02:10:00;7.7;;;3.2;;
37365;SDS011;23239;51.504;7.456;2023-08-31T02:11:00;7.7;;;3.2;;
37365;SDS011;23239;51.504;7.456;2023-08-31T02:12:00;9.7;;;3.4;;
37365;SDS011;23239;51.504;7.456;2023-08-31T02:13:00;9.7;;;3.4;;
37365;SDS011;23239;51.504;7.456;2023-08-31T02:14:00;9.7;;;3.4;;
37365;SDS011;23239;51.504;7.456;2023-08-31T02:15:00;9.7;;;3.4;;
37365;SDS011;23239;51.504;7.456;2023-08-31T02:16:00;9.7;;;3.4;;
37365;SDS011;23239;51.504;7.456;2023-08-31T02:17:00;8.4;;;4.0;;
37365;SDS011;23239;51.504;7.456;2023-08-31T02:18:00;8.4;;;4.0;;
37365;SDS011;23239;51.504;7.456;2023-08-31T02:19:00;8.4;;;4.0;;
37365;SDS011;23239;51.504;7.456;2023-08-31T02:20:00;8.4;;;4.0;;
37365;SDS011;23239;51.504;7.456;2023-08-31T02:21:00;8.4;;;4.0;;
37365;SDS011;23239;51.504;7.456;2023-08-31T02:22:00;7.0;;;3.8;;
37365;SDS011;23239;51.504;7.456;2023-08-31T02:23:00;7.0;;;3.8;;
37365;SDS011;23239;51.504;7.456;2023-08-31T02:24:00;7.0;;;3.8;;
37365;SDS011;23239;51.504;7.456;2023-08-31T02:25:00;7.0;;;3.8;;
37365;SDS011;23239;51.504;7.456;2023-08-31T02:26:00;7.0;;;3.8;;
37365;SDS011;23239;51.504;7.456;2023-08-31T02:27:00;7.4;;;3.8;;
37365;SDS011;23239;51.504;7.456;2023-08-31T02:28:00;7.4;;;3.8;;
37365;SDS011;23239;51.504;7.456;2023-08-31T02:29:00;7.4;;;3.8;;
37365;SDS011;23239;51.504;7.456;2023-08-31T02:30:00;7.4;;;3.8;;
37365;SDS011;23239;51.504;7.456;2023-08-31T02:31:01;7.4;;;3.8;;
37365;SDS011;23239;51.504;7.456;2023-08-31T02:32:00;9.0;;;3.8;;
37365;SDS011;23239;51.504;7.456;2023-08-31T02:33:00;9.0;;;3.8;;
37365;SDS011;23239;51.504;7.456;2023-08-31T02:34:00;9.0;;;3.8;;
37365;SDS011;23239;51.504;7.456;2023-08-31T02:35:00;9.0;;;3.8;;
37365;SDS011;23239;51.504;7.456;2023-08-31T02:36:00;9.0;;;3.8;;
37365;SDS011;23239;51.504;7.456;2023-08-31T02:37:00;9.3;;;3.8;;
37365;SDS011;23239;51.504;7.456;2023-08-31T02:38:00;9.3;;;3.8;;
37365;SDS011;23239;51.504;7.456;2023-08-31T02:39:00;9.3;;;3.8;;
37365;SDS011;23239;51.504;7.456;2023-08-31T02:40:00;9.3;;;3.8;;
37365;SDS011;23239;51.504;7.456;2023-08-31T02:41:00;9.3;;;3.8;;
37365;SDS011;23239;51.504;7.456;2023-08-31T02:42:00;8.0;;;3.4;;
37365;SDS011;23239;51.504;7.456;2023-08-31T02:43:00;8.0;;;3.4;;
37365;SDS011;23239;51.504;7.456;2023-08-31T02:44:00;8.0;;;3.4;;
37365;SDS011;23239;51.504;7.456;2023-08-31T02:45:00;8.0;;;3.4;;
37365;SDS011;23239;51.504;7.456;2023-08-31T02:46:00;8.0;;;3.4;;
37365;SDS011;23239;51.504;7.456;2023-08-31T02:47:00;8.6;;;4.2;;
37365;SDS011;23239;51.504;7.456;2023-08-31T02:48:00;8.6;;;4.2;;
37365;SDS011;23239;51.504;7.456;2023-08-31T02:49:00;8.6;;;4.2;;
37365;SDS011;23239;51.504;7.456;2023-08-31T02:50:00;8.6;;;4.2;;
37365;SDS011;23239;51.504;7.456;2023-08-31T02:51:01;8.6;;;4.2;;
37365;SDS011;23239;51.504;7.456;2023-08-31T02:52:00;9.1;;;4.3;;
37365;SDS011;23239;51.504;7.456;2023-08-31T02:53:00;9.1;;;4.3;;
37365;SDS011;23239;51.504;7.456;2023-08-31T02:54:00;9.1;;;4.3;;
37365;SDS011;23239;51.504;7.456;2023-08-31T02:55:00;9.1;;;4.3;;
37365;SDS011;23239;51.504;7.456;2023-08-31T02:56:00;9.1;;;4.3;;
37365;SDS011;23239;51.504;7.456;2023-08-31T02:57:00;8.5;;;4.6;;
37365;SDS011;23239;51.504;7.456;2023-08-31T02:58:00;8.5;;;4.6;;
37365;SDS011;23239;51.504;7.456;2023-08-31T02:59:00;8.5;;;4.6;;
37365;SDS011;23239;51.504;7.456;2023-08-31T03:00:00;8.5;;;4.6;;
37365;SDS011;23239;51.504;7.456;2023-08-31T03:01:08;8.5;;;4.6;;
37365;SDS011;23239;51.504;7.456;2023-08-31T03:02:00;9.5;;;4.4;;
37365;SDS011;23239;51.504;7.456;2023-08-31T03:03:00;9.5;;;4.4;;
37365;SDS011;23239;51.504;7.456;2023-08-31T03:04:00;9.5;;;4.4;;
37365;SDS011;23239;51.504;7.456;2023-08-31T03:05:00;9.5;;;4.4;;
37365;SDS011;23239;51.504;7.456;2023-08-31T03:06:00;9.5;;;4.4;;
37365;SDS011;23239;51.504;7.456;2023-08-31T03:07:00;7.3;;;3.8;;
37365;SDS011;23239;51.504;7.456;2023-08-31T03:08:00;7.3;;;3.8;;
37365;SDS011;23239;51.504;7.456;2023-08-31T03:09:00;7.3;;;3.8;;
37365;SDS011;23239;51.504;7.456;2023-08-31T03:10:00;7.3;;;3.8;;
37365;SDS011;23239;51.504;7.456;2023-08-31T03:11:01;7.3;;;3.8;;
37365;SDS011;23239;51.504;7.456;2023-08-31T03:12:00;6.7;;;3.8;;
37365;SDS011;23239;51.504;7.456;2023-08-31T03:13:00;6.7;;;3.8;;
37365;SDS011;23239;51.504;7.456;2023-08-31T03:14:00;6.7;;;3.8;;
37365;SDS011;23239;51.504;7.456;2023-08-31T03:15:00;6.7;;;3.8;;
37365;SDS011;23239;51.504;7.456;2023-08-31T03:16:00;6.7;;;3.8;;
37365;SDS011;23239;51.504;7.456;2023-08-31T03:17:00;7.6;;;3.9;;
37365;SDS011;23239;51.504;7.456;2023-08-31T03:18:00;7.6;;;3.9;;
37365;SDS011;23239;51.504;7.456;2023-08-31T03:19:00;7.6;;;3.9;;
37365;SDS011;23239;51.504;7.456;2023-08-31T03:20:00;7.6;;;3.9;;
37365;SDS011;23239;51.504;7.456;2023-08-31T03:21:00;7.6;;;3.9;;
37365;SDS011;23239;51.504;7.456;2023-08-31T03:22:00;7.2;;;4.0;;
37365;SDS011;23239;51.504;7.456;2023-08-31T03:23:00;7.2;;;4.0;;
37365;SDS011;23239;51.504;7.456;2023-08-31T03:24:00;7.2;;;4.0;;
37365;SDS011;23239;51.504;7.456;2023-08-31T03:25:00;7.2;;;4.0;;
37365;SDS011;23239;51.504;7.456;2023-08-31T03:26:05;7.2;;;4.0;;
37365;SDS011;23239;51.504;7.456;2023-08-31T03:27:00;8.0;;;4.3;;
37365;SDS011;23239;51.504;7.456;2023-08-31T03:28:00;8.0;;;4.3;;
37365;SDS011;23239;51.504;7.456;2023-08-31T03:29:00;8.0;;;4.3;;
37365;SDS011;23239;51.504;7.456;2023-08-31T03:30:00;8.0;;;4.3;;
37365;SDS011;23239;51.504;7.456;2023-08-31T03:31:00;8.0;;;4.3;;
37365;SDS011;23239;51.504;7.456;2023-08-31T03:32:00;7.6;;;4.6;;
37365;SDS011;23239;51.504;7.456;2023-08-31T03:33:00;7.6;;;4.6;;
37365;SDS011;23239;51.504;7.456;2023-08-31T03:34:00;7.6;;;4.6;;
37365;SDS011;23239;51.504;7.456;2023-08-31T03:35:01;7.6;;;4.6;;
37365;SDS011;23239;51.504;7.456;2023-08-31T03:36:00;7.6;;;4.6;;
37365;SDS011;23239;51.504;7.456;2023-08-31T03:37:01;8.9;;;5.0;;
37365;SDS011;23239;51.504;7.456;2023-08-31T03:38:00;8.9;;;5.0;;
37365;SDS011;23239;51.504;7.456;2023-08-31T03:39:00;8.9;;;5.0;;
37365;SDS011;23239;51.504;7.456;2023-08-31T03:40:00;8.9;;;5.0;;
37365;SDS011;23239;51.504;7.456;2023-08-31T03:41:00;8.9;;;5.0;;
37365;SDS011;23239;51.504;7.456;2023-08-31T03:42:00;8.8;;;4.9;;
37365;SDS011;23239;51.504;7.456;2023-08-31T03:43:00;8.8;;;4.9;;
37365;SDS011;23239;51.504;7.456;2023-08-31T03:44:00;8.8;;;4.9;;
37365;SDS011;23239;51.504;7.456;2023-08-31T03:45:00;8.8;;;4.9;;
37365;SDS011;23239;51.504;7.456;2023-08-31T03:46:00;8.8;;;4.9;;
37365;SDS011;23239;51.504;7.456;2023-08-31T03:47:00;8.8;;;4.9;;
37365;SDS011;23239;51.504;7.456;2023-08-31T03:48:00;8.8;;;4.9;;
37365;SDS011;23239;51.504;7.456;2023-08-31T03:49:00;8.8;;;4.9;;
37365;SDS011;23239;51.504;7.456;2023-08-31T03:50:00;8.8;;;4.9;;
37365;SDS011;23239;51.504;7.456;2023-08-31T03:51:00;8.8;;;4.9;;
37365;SDS011;23239;51.504;7.456;2023-08-31T03:52:00;11.1;;;5.5;;
37365;SDS011;23239;51.504;7.456;2023-08-31T03:53:00;11.1;;;5.5;;
37365;SDS011;23239;51.504;7.456;2023-08-31T03:54:00;11.1;;;5.5;;
37365;SDS011;23239;51.504;7.456;2023-08-31T03:55:00;11.1;;;5.5;;
37365;SDS011;23239;51.504;7.456;2023-08-31T03:56:00;11.1;;;5.5;;
37365;SDS011;23239;51.504;7.456;2023-08-31T03:57:00;9.2;;;5.2;;
37365;SDS011;23239;51.504;7.456;2023-08-31T03:58:00;9.2;;;5.2;;
37365;SDS011;23239;51.504;7.456;2023-08-31T03:59:01;9.2;;;5.2;;
37365;SDS011;23239;51.504;7.456;2023-08-31T04:00:00;9.2;;;5.2;;
37365;SDS011;23239;51.504;7.456;2023-08-31T04:01:00;9.2;;;5.2;;
37365;SDS011;23239;51.504;7.456;2023-08-31T04:02:00;9.2;;;5.5;;
37365;SDS011;23239;51.504;7.456;2023-08-31T04:03:00;9.2;;;5.5;;
37365;SDS011;23239;51.504;7.456;2023-08-31T04:04:00;9.2;;;5.5;;
37365;SDS011;23239;51.504;7.456;2023-08-31T04:05:00;9.2;;;5.5;;
37365;SDS011;23239;51.504;7.456;2023-08-31T04:06:01;9.2;;;5.5;;
37365;SDS011;23239;51.504;7.456;2023-08-31T04:07:00;9.9;;;5.9;;
37365;SDS011;23239;51.504;7.456;2023-08-31T04:08:00;9.9;;;5.9;;
37365;SDS011;23239;51.504;7.456;2023-08-31T04:09:00;9.9;;;5.9;;
37365;SDS011;23239;51.504;7.456;2023-08-31T04:10:00;9.9;;;5.9;;
37365;SDS011;23239;51.504;7.456;2023-08-31T04:11:00;9.9;;;5.9;;
37365;SDS011;23239;51.504;7.456;2023-08-31T04:12:00;9.9;;;6.8;;
37365;SDS011;23239;51.504;7.456;2023-08-31T04:13:00;9.9;;;6.8;;
37365;SDS011;23239;51.504;7.456;2023-08-31T04:14:00;9.9;;;6.8;;
37365;SDS011;23239;51.504;7.456;2023-08-31T04:15:00;9.9;;;6.8;;
37365;SDS011;23239;51.504;7.456;2023-08-31T04:16:00;9.9;;;6.8;;
37365;SDS011;23239;51.504;7.456;2023-08-31T04:17:00;10.0;;;6.7;;
37365;SDS011;23239;51.504;7.456;2023-08-31T04:18:00;10.0;;;6.7;;
37365;SDS011;23239;51.504;7.456;2023-08-31T04:19:00;10.0;;;6.7;;
37365;SDS011;23239;51.504;7.456;2023-08-31T04:20:00;10.0;;;6.7;;
37365;SDS011;23239;51.504;7.456;2023-08-31T04:21:00;10.0;;;6.7;;
37365;SDS011;23239;51.504;7.456;2023-08-31T04:22:00;9.8;;;7.4;;
37365;SDS011;23239;51.504;7.456;2023-08-31T04:23:00;9.8;;;7.4;;
37365;SDS011;23239;51.504;7.456;2023-08-31T04:24:00;9.8;;;7.4;;
37365;SDS011;23239;51.504;7.456;2023-08-31T04:25:00;9.8;;;7.4;;
37365;SDS011;23239;51.504;7.456;2023-08-31T04:26:00;9.8;;;7.4;;
37365;SDS011;23239;51.504;7.456;2023-08-31T04:27:00;10.3;;;6.5;;
37365;SDS011;23239;51.504;7.456;2023-08-31T04:28:00;10.3;;;6.5;;
37365;SDS011;23239;51.504;7.456;2023-08-31T04:29:00;10.3;;;6.5;;
37365;SDS011;23239;51.504;7.456;2023-08-31T04:30:00;10.3;;;6.5;;
37365;SDS011;23239;51.504;7.456;2023-08-31T04:31:00;10.3;;;6.5;;
37365;SDS011;23239;51.504;7.456;2023-08-31T04:32:00;8.9;;;6.2;;
37365;SDS011;23239;51.504;7.456;2023-08-31T04:33:00;8.9;;;6.2;;
37365;SDS011;23239;51.504;7.456;2023-08-31T04:34:00;8.9;;;6.2;;
37365;SDS011;23239;51.504;7.456;2023-08-31T04:35:00;8.9;;;6.2;;
37365;SDS011;23239;51.504;7.456;2023-08-31T04:36:00;8.9;;;6.2;;
37365;SDS011;23239;51.504;7.456;2023-08-31T04:37:00;9.8;;;6.6;;
37365;SDS011;23239;51.504;7.456;2023-08-31T04:38:00;9.8;;;6.6;;
37365;SDS011;23239;51.504;7.456;2023-08-31T04:39:00;9.8;;;6.6;;
37365;SDS011;23239;51.504;7.456;2023-08-31T04:40:00;9.8;;;6.6;;
37365;SDS011;23239;51.504;7.456;2023-08-31T04:41:00;9.8;;;6.6;;
37365;SDS011;23239;51.504;7.456;2023-08-31T04:42:00;12.3;;;7.0;;
37365;SDS011;23239;51.504;7.456;2023-08-31T04:43:00;12.3;;;7.0;;
37365;SDS011;23239;51.504;7.456;2023-08-31T04:44:00;12.3;;;7.0;;
37365;SDS011;23239;51.504;7.456;2023-08-31T04:45:00;12.3;;;7.0;;
37365;SDS011;23239;51.504;7.456;2023-08-31T04:46:00;12.3;;;7.0;;
37365;SDS011;23239;51.504;7.456;2023-08-31T04:47:00;10.4;;;7.0;;
37365;SDS011;23239;51.504;7.456;2023-08-31T04:48:00;10.4;;;7.0;;
37365;SDS011;23239;51.504;7.456;2023-08-31T04:49:00;10.4;;;7.0;;
37365;SDS011;23239;51.504;7.456;2023-08-31T04:50:00;10.4;;;7.0;;
37365;SDS011;23239;51.504;7.456;2023-08-31T04:51:00;10.4;;;7.0;;
37365;SDS011;23239;51.504;7.456;2023-08-31T04:52:00;9.7;;;7.4;;
37365;SDS011;23239;51.504;7.456;2023-08-31T04:53:01;9.7;;;7.4;;
37365;SDS011;23239;51.504;7.456;2023-08-31T04:54:00;9.7;;;7.4;;
37365;SDS011;23239;51.504;7.456;2023-08-31T04:55:00;9.7;;;7.4;;
37365;SDS011;23239;51.504;7.456;2023-08-31T04:56:00;9.7;;;7.4;;
37365;SDS011;23239;51.504;7.456;2023-08-31T04:57:00;10.6;;;8.0;;
37365;SDS011;23239;51.504;7.456;2023-08-31T04:58:00;10.6;;;8.0;;
37365;SDS011;23239;51.504;7.456;2023-08-31T04:59:00;10.6;;;8.0;;
37365;SDS011;23239;51.504;7.456;2023-08-31T05:00:00;10.6;;;8.0;;
37365;SDS011;23239;51.504;7.456;2023-08-31T05:01:00;10.6;;;8.0;;
37365;SDS011;23239;51.504;7.456;2023-08-31T05:02:00;9.2;;;7.9;;
37365;SDS011;23239;51.504;7.456;2023-08-31T05:03:00;9.2;;;7.9;;
37365;SDS011;23239;51.504;7.456;2023-08-31T05:04:00;9.2;;;7.9;;
37365;SDS011;23239;51.504;7.456;2023-08-31T05:05:00;9.2;;;7.9;;
37365;SDS011;23239;51.504;7.456;2023-08-31T05:06:00;9.2;;;7.9;;
37365;SDS011;23239;51.504;7.456;2023-08-31T05:07:00;11.2;;;7.8;;
37365;SDS011;23239;51.504;7.456;2023-08-31T05:08:00;11.2;;;7.8;;
37365;SDS011;23239;51.504;7.456;2023-08-31T05:09:00;11.2;;;7.8;;
37365;SDS011;23239;51.504;7.456;2023-08-31T05:10:00;11.2;;;7.8;;
37365;SDS011;23239;51.504;7.456;2023-08-31T05:11:00;11.2;;;7.8;;
37365;SDS011;23239;51.504;7.456;2023-08-31T05:12:00;9.9;;;8.0;;
37365;SDS011;23239;51.504;7.456;2023-08-31T05:13:00;9.9;;;8.0;;
37365;SDS011;23239;51.504;7.456;2023-08-31T05:14:00;9.9;;;8.0;;
37365;SDS011;23239;51.504;7.456;2023-08-31T05:15:00;9.9;;;8.0;;
37365;SDS011;23239;51.504;7.456;2023-08-31T05:16:00;9.9;;;8.0;;
37365;SDS011;23239;51.504;7.456;2023-08-31T05:17:00;10.5;;;7.7;;
37365;SDS011;23239;51.504;7.456;2023-08-31T05:18:00;10.5;;;7.7;;
37365;SDS011;23239;51.504;7.456;2023-08-31T05:19:00;10.5;;;7.7;;
37365;SDS011;23239;51.504;7.456;2023-08-31T05:20:00;10.5;;;7.7;;
37365;SDS011;23239;51.504;7.456;2023-08-31T05:21:00;10.5;;;7.7;;
37365;SDS011;23239;51.504;7.456;2023-08-31T05:22:00;10.7;;;8.3;;
37365;SDS011;23239;51.504;7.456;2023-08-31T05:23:00;10.7;;;8.3;;
37365;SDS011;23239;51.504;7.456;2023-08-31T05:24:00;10.7;;;8.3;;
37365;SDS011;23239;51.504;7.456;2023-08-31T05:25:00;10.7;;;8.3;;
37365;SDS011;23239;51.504;7.456;2023-08-31T05:26:00;10.7;;;8.3;;
37365;SDS011;23239;51.504;7.456;2023-08-31T05:27:00;10.9;;;8.3;;
37365;SDS011;23239;51.504;7.456;2023-08-31T05:28:00;10.9;;;8.3;;
37365;SDS011;23239;51.504;7.456;2023-08-31T05:29:00;10.9;;;8.3;;
37365;SDS011;23239;51.504;7.456;2023-08-31T05:30:00;10.9;;;8.3;;
37365;SDS011;23239;51.504;7.456;2023-08-31T05:31:00;10.9;;;8.3;;
37365;SDS011;23239;51.504;7.456;2023-08-31T05:32:00;11.7;;;8.9;;
37365;SDS011;23239;51.504;7.456;2023-08-31T05:33:00;11.7;;;8.9;;
37365;SDS011;23239;51.504;7.456;2023-08-31T05:34:00;11.7;;;8.9;;
37365;SDS011;23239;51.504;7.456;2023-08-31T05:35:00;11.7;;;8.9;;
37365;SDS011;23239;51.504;7.456;2023-08-31T05:36:00;11.7;;;8.9;;
37365;SDS011;23239;51.504;7.456;2023-08-31T05:37:00;11.0;;;8.1;;
37365;SDS011;23239;51.504;7.456;2023-08-31T05:38:00;11.0;;;8.1;;
37365;SDS011;23239;51.504;7.456;2023-08-31T05:39:00;11.0;;;8.1;;
37365;SDS011;23239;51.504;7.456;2023-08-31T05:40:00;11.0;;;8.1;;
37365;SDS011;23239;51.504;7.456;2023-08-31T05:41:04;11.0;;;8.1;;
37365;SDS011;23239;51.504;7.456;2023-08-31T05:42:00;13.1;;;8.6;;
37365;SDS011;23239;51.504;7.456;2023-08-31T05:43:00;13.1;;;8.6;;
37365;SDS011;23239;51.504;7.456;2023-08-31T05:44:01;13.1;;;8.6;;
37365;SDS011;23239;51.504;7.456;2023-08-31T05:45:00;13.1;;;8.6;;
37365;SDS011;23239;51.504;7.456;2023-08-31T05:46:00;13.1;;;8.6;;
37365;SDS011;23239;51.504;7.456;2023-08-31T05:47:00;13.2;;;9.2;;
37365;SDS011;23239;51.504;7.456;2023-08-31T05:48:00;13.2;;;9.2;;
37365;SDS011;23239;51.504;7.456;2023-08-31T05:49:00;13.2;;;9.2;;
37365;SDS011;23239;51.504;7.456;2023-08-31T05:50:00;13.2;;;9.2;;
37365;SDS011;23239;51.504;7.456;2023-08-31T05:51:00;13.2;;;9.2;;
37365;SDS011;23239;51.504;7.456;2023-08-31T05:52:00;14.5;;;10.6;;
37365;SDS011;23239;51.504;7.456;2023-08-31T05:53:00;14.5;;;10.6;;
37365;SDS011;23239;51.504;7.456;2023-08-31T05:54:00;14.5;;;10.6;;
37365;SDS011;23239;51.504;7.456;2023-08-31T05:55:00;14.5;;;10.6;;
37365;SDS011;23239;51.504;7.456;2023-08-31T05:56:00;14.5;;;10.6;;
37365;SDS011;23239;51.504;7.456;2023-08-31T05:57:01;12.5;;;9.6;;
37365;SDS011;23239;51.504;7.456;2023-08-31T05:58:00;12.5;;;9.6;;
37365;SDS011;23239;51.504;7.456;2023-08-31T05:59:00;12.5;;;9.6;;
37365;SDS011;23239;51.504;7.456;2023-08-31T06:00:00;12.5;;;9.6;;
37365;SDS011;23239;51.504;7.456;2023-08-31T06:01:01;12.5;;;9.6;;
37365;SDS011;23239;51.504;7.456;2023-08-31T06:02:00;14.1;;;9.8;;
37365;SDS011;23239;51.504;7.456;2023-08-31T06:03:00;14.1;;;9.8;;
37365;SDS011;23239;51.504;7.456;2023-08-31T06:04:00;14.1;;;9.8;;
37365;SDS011;23239;51.504;7.456;2023-08-31T06:05:00;14.1;;;9.8;;
37365;SDS011;23239;51.504;7.456;2023-08-31T06:06:00;14.1;;;9.8;;
37365;SDS011;23239;51.504;7.456;2023-08-31T06:07:00;15.2;;;10.4;;
37365;SDS011;23239;51.504;7.456;2023-08-31T06:08:00;15.2;;;10.4;;
37365;SDS011;23239;51.504;7.456;2023-08-31T06:09:00;15.2;;;10.4;;
37365;SDS011;23239;51.504;7.456;2023-08-31T06:10:00;15.2;;;10.4;;